Time;durP1;ratioP1;P1;durP2;ratioP2;P2;SDS_P1;SDS_P2;PMS_P1;PMS_P2;Temp;Humidity;BMP_temperature;BMP_pressure;BME280_temperature;BME280_humidity;BME280_pressure;Samples;Min_cycle;Max_cycle;Signal;HPM_P1;HPM_P2
2022/04/07 04:22:32;;;;;;;2.92;1.33;;;;;;;10.22;80.16;98576.22;5108984;27;20162;-72
2022/04/07 04:24:57;;;;;;;2.58;1.20;;;;;;;10.30;79.76;98578.66;5109457;28;20031;-72
2022/04/07 04:27:23;;;;;;;2.47;1.10;;;;;;;10.32;80.15;98580.09;5107928;28;20509;-73
2022/04/07 04:29:49;;;;;;;2.42;1.35;;;;;;;10.38;79.66;98577.63;5109304;28;20042;-73
2022/04/07 04:32:14;;;;;;;1.33;0.95;;;;;;;10.39;80.12;98566.78;5108110;28;20464;-73
2022/04/07 04:34:40;;;;;;;1.52;1.17;;;;;;;10.39;79.85;98572.09;5109300;28;20481;-72
2022/04/07 04:37:05;;;;;;;2.08;1.00;;;;;;;10.40;80.18;98570.25;5109039;28;20032;-73
2022/04/07 04:39:31;;;;;;;2.45;1.60;;;;;;;10.40;80.44;98576.38;5109146;28;20032;-72
2022/04/07 04:41:57;;;;;;;1.77;1.10;;;;;;;10.39;80.36;98568.63;5108589;28;20036;-72
2022/04/07 04:44:22;;;;;;;1.83;1.13;;;;;;;10.38;80.31;98562.47;5109000;28;20042;-73
2022/04/07 04:46:48;;;;;;;3.20;1.30;;;;;;;10.33;80.33;98565.78;5107627;28;20040;-73
2022/04/07 04:49:13;;;;;;;2.13;1.45;;;;;;;10.30;80.61;98557.38;5108888;28;20040;-73
2022/04/07 04:51:39;;;;;;;1.95;1.40;;;;;;;10.25;80.76;98563.34;5108554;28;20044;-73
2022/04/07 04:54:05;;;;;;;2.80;1.67;;;;;;;10.19;80.96;98550.06;5107494;28;20106;-72
2022/04/07 04:56:30;;;;;;;4.45;1.30;;;;;;;10.19;80.74;98550.06;5108762;28;20063;-72
2022/04/07 04:58:57;;;;;;;3.47;1.33;;;;;;;10.22;80.72;98544.28;5108687;28;20381;-73
2022/04/07 05:01:24;;;;;;;2.53;1.38;;;;;;;10.23;81.13;98536.13;5108469;28;20032;-72
2022/04/07 05:03:50;;;;;;;3.53;1.40;;;;;;;10.27;80.96;98525.88;5107305;28;20043;-72
2022/04/07 05:06:16;;;;;;;1.70;0.98;;;;;;;10.13;81.25;98519.78;5108374;28;20170;-72
2022/04/07 05:08:41;;;;;;;4.00;1.30;;;;;;;10.18;81.39;98530.63;5107423;28;20484;-73
2022/04/07 05:11:07;;;;;;;2.88;1.25;;;;;;;10.18;81.66;98525.28;5108473;28;20056;-72
2022/04/07 05:13:33;;;;;;;2.63;1.10;;;;;;;10.16;81.34;98524.66;5108145;28;20171;-72
2022/04/07 05:15:58;;;;;;;2.13;1.15;;;;;;;10.19;81.28;98518.94;5107017;28;20479;-73
2022/04/07 05:18:24;;;;;;;2.55;1.10;;;;;;;10.27;81.15;98542.66;5108513;28;20039;-72
2022/04/07 05:20:50;;;;;;;2.60;1.13;;;;;;;10.19;81.55;98518.13;5108173;28;20031;-72
2022/04/07 05:23:16;;;;;;;1.45;1.02;;;;;;;10.19;81.28;98495.00;5108103;28;20123;-73
2022/04/07 05:25:41;;;;;;;1.48;1.17;;;;;;;10.22;81.13;98486.56;5108128;28;20035;-72
2022/04/07 05:28:07;;;;;;;1.50;1.20;;;;;;;10.18;81.38;98495.22;5108048;28;20040;-73
2022/04/07 05:30:33;;;;;;;0.95;0.85;;;;;;;10.22;81.45;98491.88;5108122;28;20134;-74
2022/04/07 05:32:59;;;;;;;1.35;1.00;;;;;;;10.31;80.53;98493.31;5099508;28;20036;-75
2022/04/07 05:35:28;;;;;;;3.85;0.95;;;;;;;10.33;80.70;98490.44;5094459;28;20111;-74
2022/04/07 05:38:01;;;;;;;1.73;1.48;;;;;;;10.39;80.41;98478.94;5076965;28;20128;-74
2022/04/07 05:40:27;;;;;;;1.23;1.00;;;;;;;10.33;80.60;98471.81;5094353;28;20039;-76
2022/04/07 05:42:52;;;;;;;2.40;1.17;;;;;;;10.37;80.74;98467.69;5093864;28;20028;-74
2022/04/07 05:45:18;;;;;;;1.40;1.10;;;;;;;10.47;80.21;98459.22;5094163;28;20064;-74
2022/04/07 05:47:44;;;;;;;1.30;1.00;;;;;;;10.51;79.61;98465.75;5094281;28;20039;-75
2022/04/07 05:50:10;;;;;;;3.70;1.50;;;;;;;10.53;80.02;98455.69;5075908;28;20044;-74
2022/04/07 05:52:36;;;;;;;1.20;0.75;;;;;;;10.63;78.45;98461.38;5093790;28;20119;-75
2022/04/07 05:55:03;;;;;;;0.88;0.80;;;;;;;10.67;78.38;98456.41;5094219;28;20032;-73
2022/04/07 05:57:31;;;;;;;2.83;0.88;;;;;;;10.70;79.24;98472.78;5093926;28;20040;-74
2022/04/07 06:00:03;;;;;;;2.83;0.70;;;;;;;10.75;78.11;98480.09;5094049;28;20028;-75
2022/04/07 06:02:30;;;;;;;1.02;0.63;;;;;;;10.80;77.63;98473.09;5093584;28;20036;-74
2022/04/07 06:04:55;;;;;;;0.88;0.80;;;;;;;10.84;77.27;98486.81;5092568;28;20059;-74
2022/04/07 06:07:22;;;;;;;3.38;0.98;;;;;;;10.80;78.91;98477.59;5093897;28;20499;-74
2022/04/07 06:09:47;;;;;;;1.33;0.77;;;;;;;10.78;82.04;98479.69;5093911;28;20040;-74
2022/04/07 06:12:13;;;;;;;0.98;0.82;;;;;;;10.64;83.99;98467.50;5092095;28;20549;-69
2022/04/07 06:14:39;;;;;;;1.15;0.65;;;;;;;10.47;84.94;98461.88;5093837;28;20032;-70
2022/04/07 06:17:04;;;;;;;1.95;0.70;;;;;;;10.39;86.56;98457.66;5094062;28;20221;-71
2022/04/07 06:19:30;;;;;;;2.25;0.90;;;;;;;10.36;87.28;98463.38;5093411;28;20052;-71
2022/04/07 06:21:56;;;;;;;0.98;0.70;;;;;;;10.36;85.45;98468.69;5093129;28;20498;-73
2022/04/07 06:24:22;;;;;;;0.95;0.60;;;;;;;10.36;85.46;98455.41;5093729;28;20128;-74
2022/04/07 06:26:49;;;;;;;3.03;0.80;;;;;;;10.30;84.64;98453.59;5093403;28;20511;-74
2022/04/07 06:29:15;;;;;;;0.73;0.73;;;;;;;10.30;85.74;98450.94;5093576;28;20044;-73
2022/04/07 06:31:40;;;;;;;0.95;0.70;;;;;;;10.30;85.71;98441.13;5093254;28;20105;-72
2022/04/07 06:34:06;;;;;;;0.70;0.70;;;;;;;10.36;84.69;98439.44;5075194;28;20392;-73
2022/04/07 06:36:32;;;;;;;0.75;0.60;;;;;;;10.39;84.94;98427.56;5093344;28;20503;-72
2022/04/07 06:38:58;;;;;;;2.10;0.75;;;;;;;10.40;84.30;98424.66;5093331;28;20024;-73
2022/04/07 06:41:23;;;;;;;1.98;0.90;;;;;;;10.46;83.88;98415.81;5084892;28;20033;-73
2022/04/07 06:43:49;;;;;;;1.75;1.17;;;;;;;10.47;83.22;98398.81;5091882;28;20123;-72
2022/04/07 06:46:14;;;;;;;1.52;0.88;;;;;;;10.47;83.75;98403.31;5092791;28;20121;-72
2022/04/07 06:48:40;;;;;;;1.90;0.98;;;;;;;10.40;85.17;98392.72;5093065;28;20119;-73
2022/04/07 06:51:06;;;;;;;1.13;0.90;;;;;;;10.44;85.10;98383.28;5092525;28;20028;-73
2022/04/07 06:53:31;;;;;;;1.55;0.90;;;;;;;10.40;85.76;98389.25;5090842;28;20044;-72
2022/04/07 06:55:57;;;;;;;2.95;1.00;;;;;;;10.38;85.40;98389.47;5074405;28;20036;-73
2022/04/07 06:58:23;;;;;;;1.55;1.02;;;;;;;10.40;86.29;98381.28;5091762;28;20038;-72
2022/04/07 07:00:48;;;;;;;3.67;1.33;;;;;;;10.41;87.14;98367.72;5092642;28;20047;-73
2022/04/07 07:03:15;;;;;;;3.22;1.60;;;;;;;10.39;89.43;98361.00;5091794;28;20032;-75
2022/04/07 07:05:41;;;;;;;5.90;1.70;;;;;;;10.33;88.86;98360.03;5091284;28;20397;-74
2022/04/07 07:08:15;;;;;;;5.05;1.83;;;;;;;10.22;90.38;98347.38;5091555;28;20404;-71
2022/04/07 07:10:42;;;;;;;2.42;1.48;;;;;;;10.17;90.71;98356.03;5074067;28;20108;-73
2022/04/07 07:13:07;;;;;;;1.60;1.20;;;;;;;10.07;91.38;98345.88;5091763;28;20039;-72
2022/04/07 07:15:33;;;;;;;4.55;1.42;;;;;;;10.06;93.47;98357.53;5092275;28;20040;-74
2022/04/07 07:17:58;;;;;;;3.13;1.00;;;;;;;10.06;94.63;98354.88;5092364;28;20093;-74
2022/04/07 07:20:24;;;;;;;3.47;1.80;;;;;;;10.08;94.44;98352.00;5090831;28;20393;-74
2022/04/07 07:22:50;;;;;;;2.42;1.23;;;;;;;10.10;94.58;98339.28;5090266;28;20056;-73
2022/04/07 07:25:15;;;;;;;1.80;0.80;;;;;;;10.09;93.01;98335.00;5091638;28;20048;-73
2022/04/07 07:27:43;;;;;;;2.75;0.90;;;;;;;10.18;92.57;98322.25;5074250;28;20040;-75
2022/04/07 07:30:10;;;;;;;;;;;;;;;10.22;91.68;98320.78;5091294;28;20461;-74
2022/04/07 07:32:40;;;;;;;2.40;0.93;;;;;;;10.25;90.82;98317.72;5091199;28;19912;-72
2022/04/07 07:35:07;;;;;;;1.60;1.10;;;;;;;10.33;89.60;98296.16;5090730;28;20040;-72
2022/04/07 07:37:35;;;;;;;1.83;0.77;;;;;;;10.47;87.24;98294.19;5091831;28;20485;-74
2022/04/07 07:40:05;;;;;;;1.23;0.98;;;;;;;10.56;85.25;98295.50;5091644;28;20043;-72
2022/04/07 07:42:30;;;;;;;3.00;1.10;;;;;;;10.63;85.50;98277.66;5090997;28;20032;-74
2022/04/07 07:44:56;;;;;;;2.40;1.00;;;;;;;10.72;84.63;98278.16;5091557;28;20637;-72
2022/04/07 07:47:22;;;;;;;1.23;0.70;;;;;;;10.86;82.85;98276.97;5090562;28;20093;-73
2022/04/07 07:49:47;;;;;;;0.88;0.70;;;;;;;11.01;81.22;98265.94;5091338;28;20044;-72
2022/04/07 07:52:13;;;;;;;3.42;0.80;;;;;;;11.25;80.62;98261.53;5089974;28;20035;-72
2022/04/07 07:54:38;;;;;;;3.95;1.30;;;;;;;11.41;78.26;98256.41;5091604;28;20048;-72
2022/04/07 07:57:04;;;;;;;2.45;1.00;;;;;;;11.53;78.27;98226.28;5089951;28;20032;-72
2022/04/07 07:59:30;;;;;;;1.33;0.80;;;;;;;11.48;79.38;98234.16;5089986;28;20105;-72
2022/04/07 08:01:55;;;;;;;1.67;0.90;;;;;;;11.45;81.71;98238.09;5090897;28;20036;-72
2022/04/07 08:04:21;;;;;;;2.17;0.90;;;;;;;11.28;80.82;98229.94;5091449;28;20549;-74
2022/04/07 08:06:46;;;;;;;1.73;0.82;;;;;;;11.30;81.14;98227.03;5089903;28;20036;-72
2022/04/07 08:09:14;;;;;;;2.45;0.85;;;;;;;11.32;80.72;98211.63;5091467;28;20032;-72
2022/04/07 08:11:41;;;;;;;1.80;0.98;;;;;;;11.47;80.03;98200.53;5089473;28;20028;-73
2022/04/07 08:14:07;;;;;;;1.17;0.93;;;;;;;11.58;79.39;98223.75;5090094;28;20050;-72
2022/04/07 08:16:33;;;;;;;3.28;1.02;;;;;;;11.80;77.18;98192.84;5091261;28;20467;-72
2022/04/07 08:18:59;;;;;;;3.63;1.05;;;;;;;12.07;75.33;98198.56;5073408;28;20047;-73
2022/04/07 08:21:24;;;;;;;2.03;0.98;;;;;;;12.28;74.61;98186.47;5091345;28;20039;-73
2022/04/07 08:23:50;;;;;;;1.38;0.63;;;;;;;12.47;72.91;98190.63;5091732;28;20040;-72
2022/04/07 08:26:16;;;;;;;1.85;0.60;;;;;;;12.60;72.98;98208.25;5090298;28;20493;-73
2022/04/07 08:28:41;;;;;;;2.75;0.77;;;;;;;12.59;71.25;98197.81;5089097;28;20036;-73
2022/04/07 08:31:07;;;;;;;3.22;0.65;;;;;;;12.62;70.13;98210.69;5091657;28;20036;-73
2022/04/07 08:33:33;;;;;;;1.55;0.65;;;;;;;12.63;70.48;98202.44;5091337;28;20185;-73
2022/04/07 08:35:59;;;;;;;10.98;1.95;;;;;;;12.48;72.19;98186.91;5091446;28;20059;-74
2022/04/07 08:38:25;;;;;;;1.45;0.73;;;;;;;12.19;75.97;98190.53;5091615;28;20485;-73
2022/04/07 08:40:51;;;;;;;1.38;0.80;;;;;;;11.91;78.04;98180.56;5091520;28;20074;-74
2022/04/07 08:43:18;;;;;;;1.00;0.52;;;;;;;11.80;78.12;98187.50;5089931;28;20027;-74
2022/04/07 08:45:44;;;;;;;0.60;0.60;;;;;;;11.79;79.53;98177.84;5091343;28;20229;-73
2022/04/07 08:48:12;;;;;;;2.83;0.60;;;;;;;11.89;80.66;98169.31;5091271;28;20131;-74
2022/04/07 08:50:42;;;;;;;2.55;0.63;;;;;;;11.98;76.71;98178.59;5091432;28;20093;-74
2022/04/07 08:53:08;;;;;;;1.00;0.80;;;;;;;11.85;80.13;98176.97;5089856;28;20071;-73
2022/04/07 08:55:34;;;;;;;0.50;0.47;;;;;;;11.71;81.91;98190.72;5091202;28;20437;-74
2022/04/07 08:58:01;;;;;;;0.85;0.60;;;;;;;11.70;83.09;98189.91;5091221;28;20052;-74
2022/04/07 09:00:27;;;;;;;1.77;0.60;;;;;;;11.61;85.10;98189.44;5089717;28;20036;-73
2022/04/07 09:02:53;;;;;;;1.25;0.70;;;;;;;11.54;85.22;98190.56;5090848;28;20085;-74
2022/04/07 09:05:23;;;;;;;3.97;0.73;;;;;;;11.43;86.58;98199.38;5091215;28;20038;-74
2022/04/07 09:07:50;;;;;;;1.23;0.70;;;;;;;11.32;89.40;98191.09;5074712;28;20378;-74
2022/04/07 09:10:19;;;;;;;2.90;1.00;;;;;;;11.33;87.96;98173.25;5093564;28;20040;-73
2022/04/07 09:12:45;;;;;;;2.08;0.60;;;;;;;11.32;91.44;98161.78;5094658;28;20058;-74
2022/04/07 09:15:13;;;;;;;1.75;0.60;;;;;;;11.38;91.20;98181.38;5076647;28;20507;-74
2022/04/07 09:17:55;;;;;;;1.30;0.80;;;;;;;11.45;88.50;98176.75;5094701;28;20036;-72
2022/04/07 09:20:22;;;;;;;8.07;5.57;;;;;;;11.48;89.74;98183.50;5076426;28;20102;-73
2022/04/07 09:22:58;;;;;;;2.53;0.80;;;;;;;11.45;90.00;98182.09;5094619;28;20047;-74
2022/04/07 09:25:24;;;;;;;3.65;0.70;;;;;;;11.39;91.97;98188.34;5093893;28;20440;-75
2022/04/07 09:27:50;;;;;;;1.48;0.68;;;;;;;11.41;90.76;98183.63;5094580;28;20043;-73
2022/04/07 09:30:16;;;;;;;1.48;0.60;;;;;;;11.43;92.40;98176.19;5094558;28;20039;-74
2022/04/07 09:32:43;;;;;;;2.40;0.85;;;;;;;11.57;90.87;98163.47;5093067;28;20040;-74
2022/04/07 09:35:11;;;;;;;1.23;0.82;;;;;;;11.62;88.84;98155.59;5093269;28;20028;-73
2022/04/07 09:37:40;;;;;;;2.72;0.88;;;;;;;11.73;90.41;98138.75;5094547;28;20043;-75
2022/04/07 09:40:09;;;;;;;2.20;0.70;;;;;;;11.76;86.81;98140.19;5093150;28;20052;-73
2022/04/07 09:42:36;;;;;;;2.17;0.75;;;;;;;11.76;87.04;98130.31;5093962;28;20035;-73
2022/04/07 09:45:07;;;;;;;1.17;0.55;;;;;;;11.84;84.47;98110.50;5094479;28;20439;-75
2022/04/07 09:47:41;;;;;;;3.53;0.70;;;;;;;11.86;82.86;98093.22;5094177;28;20032;-74
2022/04/07 09:50:29;;;;;;;1.33;0.70;;;;;;;11.85;83.22;98086.25;5093001;28;20032;-74
2022/04/07 09:53:03;;;;;;;2.05;0.57;;;;;;;12.06;81.33;98087.53;5093840;28;20092;-74
2022/04/07 09:55:40;;;;;;;1.70;0.77;;;;;;;12.13;77.26;98076.72;5094175;28;20040;-73
2022/04/07 09:58:08;;;;;;;1.45;0.52;;;;;;;12.21;77.89;98055.81;5094127;28;20476;-73
2022/04/07 10:00:35;;;;;;;1.10;0.60;;;;;;;12.26;76.82;98051.59;5094046;28;20096;-73
2022/04/07 10:03:03;;;;;;;1.15;0.57;;;;;;;12.40;74.97;98055.63;5093854;28;20043;-74
2022/04/07 10:05:29;;;;;;;0.82;0.50;;;;;;;12.59;73.37;98065.09;5092636;28;20036;-73
2022/04/07 10:07:58;;;;;;;1.48;0.50;;;;;;;12.81;74.04;98043.03;5094211;28;20056;-70
2022/04/07 10:10:25;;;;;;;0.57;0.52;;;;;;;12.96;75.23;98032.59;5094022;28;20059;-70
2022/04/07 10:12:51;;;;;;;0.40;0.40;;;;;;;13.06;72.48;98067.50;5093538;28;20040;-69
2022/04/07 10:15:17;;;;;;;1.15;0.50;;;;;;;13.45;72.59;98032.88;5093847;28;20032;-69
2022/04/07 10:17:44;;;;;;;1.52;0.80;;;;;;;13.83;72.39;98053.47;5093784;28;20145;-69
2022/04/07 10:20:12;;;;;;;0.98;0.50;;;;;;;13.76;70.44;98002.81;5093508;28;20043;-69
2022/04/07 10:22:47;;;;;;;0.93;0.65;;;;;;;13.86;68.63;98004.78;5093276;28;20036;-69
2022/04/07 10:25:14;;;;;;;0.63;0.50;;;;;;;13.93;69.13;97999.25;5092234;28;20051;-72
2022/04/07 10:27:51;;;;;;;1.00;0.60;;;;;;;13.80;68.43;97995.09;5092300;28;20114;-72
2022/04/07 10:30:17;;;;;;;0.93;0.60;;;;;;;13.99;68.00;98003.63;5093480;28;20035;-71
2022/04/07 10:32:45;;;;;;;2.95;0.70;;;;;;;13.90;65.47;97991.75;5093953;28;20429;-73
2022/04/07 10:35:30;;;;;;;1.00;0.60;;;;;;;13.68;64.79;97983.69;5093384;28;20396;-70
2022/04/07 10:38:11;;;;;;;3.72;0.85;;;;;;;13.72;64.91;97998.19;5093360;28;20119;-72
2022/04/07 10:40:51;;;;;;;2.78;0.77;;;;;;;14.06;64.81;97988.16;5093152;28;20044;-72
2022/04/07 10:43:21;;;;;;;0.55;0.38;;;;;;;14.10;64.45;98000.81;5092982;28;20050;-71
2022/04/07 10:45:49;;;;;;;1.67;0.50;;;;;;;13.90;65.57;97986.38;5093214;28;20036;-71
2022/04/07 10:48:15;;;;;;;;;;;;;;;13.98;65.38;97975.25;5093604;28;20036;-72
2022/04/07 10:50:56;;;;;;;2.22;0.77;;;;;;;13.73;64.33;97992.59;5092091;28;19916;-72
2022/04/07 10:53:30;;;;;;;1.58;0.82;;;;;;;13.73;66.30;97960.47;5091654;28;20032;-72
2022/04/07 10:55:58;;;;;;;1.38;0.60;;;;;;;13.69;64.60;97978.09;5093414;28;20032;-71
2022/04/07 10:58:54;;;;;;;2.35;0.60;;;;;;;13.77;64.52;97955.47;5093101;28;20065;-73
2022/04/07 11:01:29;;;;;;;1.35;0.73;;;;;;;13.80;63.72;97968.31;5092928;28;20085;-71
2022/04/07 11:04:22;;;;;;;1.77;0.60;;;;;;;13.83;64.65;97941.88;5092688;28;20036;-72
2022/04/07 11:07:09;;;;;;;3.38;1.10;;;;;;;13.96;64.10;97961.31;5074465;28;20116;-72
2022/04/07 11:09:43;;;;;;;1.35;0.70;;;;;;;14.42;62.76;97959.13;5091515;28;20028;-72
2022/04/07 11:12:19;;;;;;;0.38;0.30;;;;;;;14.42;62.36;97953.75;5092305;28;20028;-72
2022/04/07 11:14:47;;;;;;;3.58;0.47;;;;;;;14.21;63.51;97960.75;5092604;28;20389;-73
2022/04/07 11:17:40;;;;;;;2.03;0.50;;;;;;;14.03;63.02;97956.56;5092417;28;20039;-71
2022/04/07 11:20:26;;;;;;;0.63;0.30;;;;;;;13.88;65.60;97981.25;5092395;28;20043;-71
2022/04/07 11:22:55;;;;;;;2.08;0.68;;;;;;;13.75;66.44;97950.34;5073896;28;20031;-71
2022/04/07 11:25:30;;;;;;;3.90;1.45;;;;;;;13.61;66.98;97967.81;5092310;28;20028;-71
2022/04/07 11:28:11;;;;;;;4.00;1.05;;;;;;;13.64;67.93;97951.28;5092291;28;20034;-72
2022/04/07 11:30:51;;;;;;;1.23;0.70;;;;;;;13.64;66.07;97945.94;5091794;28;20024;-72
2022/04/07 11:33:28;;;;;;;3.08;0.75;;;;;;;13.75;66.17;97947.66;5092055;28;20068;-72
2022/04/07 11:36:00;;;;;;;;;;;;;;;13.74;66.12;97946.03;5092743;28;20043;-71
2022/04/07 11:38:31;;;;;;;2.03;0.47;;;;;;;13.84;66.31;97942.69;5092167;28;20368;-72
2022/04/07 11:41:17;;;;;;;1.55;0.45;;;;;;;13.77;67.13;97934.06;5090728;28;20405;-72
2022/04/07 11:43:48;;;;;;;2.92;0.68;;;;;;;13.71;67.17;97917.13;5091820;28;20039;-71
2022/04/07 11:46:23;;;;;;;2.53;0.50;;;;;;;13.69;68.20;97924.59;5090417;28;20404;-73
2022/04/07 11:48:50;;;;;;;2.72;0.40;;;;;;;13.75;68.18;97912.88;5092066;28;20535;-73
2022/04/07 11:51:19;;;;;;;2.10;0.60;;;;;;;13.87;66.02;97917.28;5073830;28;20024;-71
2022/04/07 11:53:52;;;;;;;2.13;0.60;;;;;;;13.95;66.69;97932.91;5091611;28;20055;-72
2022/04/07 11:56:31;;;;;;;1.80;0.43;;;;;;;13.87;71.19;97955.56;5092045;28;20024;-73
2022/04/07 11:58:59;;;;;;;2.22;0.90;;;;;;;13.41;73.04;97930.91;5091894;28;20036;-72
2022/04/07 12:01:25;;;;;;;1.45;0.50;;;;;;;13.30;73.69;97937.19;5091716;28;20540;-72
2022/04/07 12:03:56;;;;;;;0.68;0.50;;;;;;;13.18;73.38;97933.78;5091594;28;20161;-72
2022/04/07 12:06:23;;;;;;;1.75;0.85;;;;;;;13.40;73.06;97915.94;5091729;28;20059;-71
2022/04/07 12:08:50;;;;;;;4.35;1.98;;;;;;;13.51;70.10;97919.56;5091665;28;20032;-72
2022/04/07 12:11:17;;;;;;;1.48;0.52;;;;;;;13.61;70.90;97948.28;5091553;28;20111;-72
2022/04/07 12:13:43;;;;;;;3.63;0.50;;;;;;;13.51;75.45;97940.97;5091499;28;20039;-72
2022/04/07 12:16:09;;;;;;;2.17;0.45;;;;;;;13.38;75.00;97918.06;5091696;28;20055;-72
2022/04/07 12:18:35;;;;;;;0.88;0.50;;;;;;;13.50;71.34;97913.41;5091616;28;20039;-72
2022/04/07 12:21:03;;;;;;;1.95;0.40;;;;;;;13.57;69.67;97913.22;5090202;28;20036;-72
2022/04/07 12:23:29;;;;;;;1.85;0.85;;;;;;;13.59;69.36;97905.75;5091263;28;20035;-73
2022/04/07 12:26:00;;;;;;;1.98;0.60;;;;;;;13.58;69.25;97909.47;5091427;28;20032;-76
2022/04/07 12:28:40;;;;;;;0.77;0.50;;;;;;;13.64;70.82;97900.47;5090340;28;20032;-73
2022/04/07 12:31:11;;;;;;;1.50;0.57;;;;;;;13.72;69.01;97883.97;5091407;28;20576;-74
2022/04/07 12:33:41;;;;;;;0.50;0.40;;;;;;;13.78;67.38;97864.22;5089946;28;20040;-73
2022/04/07 12:36:36;;;;;;;2.95;0.60;;;;;;;14.00;66.80;97866.84;5081205;28;20020;-75
2022/04/07 12:39:15;;;;;;;2.47;0.50;;;;;;;14.05;65.55;97868.78;5087029;28;20107;-74
2022/04/07 12:41:54;;;;;;;0.90;0.50;;;;;;;13.95;65.68;97900.78;5090045;28;20485;-74
2022/04/07 12:44:21;;;;;;;2.15;0.73;;;;;;;13.90;68.69;97882.03;5096015;28;20400;-74
2022/04/07 12:46:49;;;;;;;1.02;0.60;;;;;;;13.77;68.47;97883.22;5097283;28;20035;-74
2022/04/07 12:49:24;;;;;;;2.58;0.60;;;;;;;13.74;66.58;97891.72;5095382;28;20032;-74
2022/04/07 12:52:08;;;;;;;1.98;0.50;;;;;;;14.00;66.10;97871.41;5095051;28;20107;-74
2022/04/07 12:54:35;;;;;;;4.07;1.08;;;;;;;14.11;65.10;97873.13;5095423;28;20035;-74
2022/04/07 12:57:14;;;;;;;0.63;0.45;;;;;;;14.15;64.64;97868.91;5094015;28;20032;-76
2022/04/07 13:00:07;;;;;;;2.65;0.43;;;;;;;14.18;65.58;97875.59;5095387;28;20035;-76
2022/04/07 13:02:55;;;;;;;1.75;0.73;;;;;;;14.13;67.85;97877.16;5093391;28;20032;-75
2022/04/07 13:05:29;;;;;;;1.65;0.50;;;;;;;13.78;67.62;97855.41;5093840;28;20103;-71
2022/04/07 13:08:14;;;;;;;0.35;0.35;;;;;;;13.82;68.38;97849.31;5095097;28;20059;-74
2022/04/07 13:10:41;;;;;;;0.73;0.43;;;;;;;13.81;66.70;97855.69;5095000;28;20032;-73
2022/04/07 13:13:06;;;;;;;0.70;0.30;;;;;;;13.72;67.31;97865.22;5094729;28;20036;-72
2022/04/07 13:15:32;;;;;;;0.65;0.40;;;;;;;13.79;67.43;97844.44;5093402;28;20032;-73
2022/04/07 13:17:57;;;;;;;1.63;0.40;;;;;;;13.92;65.81;97871.88;5093318;28;20032;-70
2022/04/07 13:20:23;;;;;;;1.35;0.57;;;;;;;13.91;66.71;97856.88;5076285;28;20389;-70
2022/04/07 13:22:49;;;;;;;1.30;0.40;;;;;;;13.93;70.50;97854.75;5094369;28;20032;-71
2022/04/07 13:25:15;;;;;;;1.98;0.55;;;;;;;13.56;73.44;97856.25;5094293;28;20135;-73
2022/04/07 13:27:40;;;;;;;1.52;0.70;;;;;;;13.44;73.88;97855.56;5094620;28;20109;-72
2022/04/07 13:30:07;;;;;;;0.45;0.45;;;;;;;13.38;72.87;97850.41;5094424;28;20043;-73
2022/04/07 13:32:32;;;;;;;0.40;0.38;;;;;;;13.44;70.77;97831.50;5094226;28;20477;-73
2022/04/07 13:34:58;;;;;;;1.25;0.55;;;;;;;13.50;72.26;97856.44;5072517;28;20043;-71
2022/04/07 13:37:24;;;;;;;2.15;1.02;;;;;;;13.45;71.37;97843.00;5072611;28;20041;-70
2022/04/07 13:39:50;;;;;;;2.85;0.50;;;;;;;13.49;70.95;97849.44;5073827;28;20037;-72
2022/04/07 13:42:15;;;;;;;9.27;3.20;;;;;;;13.57;70.07;97875.78;5072232;28;20071;-73
2022/04/07 13:44:41;;;;;;;2.50;0.63;;;;;;;13.64;68.47;97838.13;5072714;28;20107;-71
2022/04/07 13:47:07;;;;;;;1.77;0.38;;;;;;;13.67;67.90;97830.41;5073887;28;20511;-72
2022/04/07 13:49:32;;;;;;;1.13;0.50;;;;;;;13.70;69.10;97850.50;5073983;28;20097;-72
2022/04/07 13:52:00;;;;;;;3.53;0.70;;;;;;;13.61;70.60;97852.00;5073428;28;20032;-71
2022/04/07 13:54:29;;;;;;;1.10;0.50;;;;;;;13.46;73.60;97852.63;5073520;28;20040;-71
2022/04/07 13:56:54;;;;;;;0.98;0.50;;;;;;;13.05;79.20;97860.13;5089242;28;20037;-71
2022/04/07 13:59:21;;;;;;;1.83;0.70;;;;;;;12.58;83.22;97852.47;5073842;28;20044;-72
2022/04/07 14:01:47;;;;;;;2.22;0.75;;;;;;;12.22;87.12;97840.44;5073413;28;20060;-71
2022/04/07 14:04:13;;;;;;;3.42;1.05;;;;;;;12.00;89.90;97847.50;5073783;28;20032;-72
2022/04/07 14:06:39;;;;;;;2.20;0.60;;;;;;;11.91;89.73;97844.44;5072959;28;20036;-73
2022/04/07 14:09:12;;;;;;;1.48;0.70;;;;;;;11.92;89.04;97819.38;5072706;28;20040;-71
2022/04/07 14:11:38;;;;;;;2.30;0.68;;;;;;;11.77;90.94;97833.22;5074438;28;20116;-72
2022/04/07 14:14:05;;;;;;;2.45;1.02;;;;;;;11.66;92.90;97824.22;5055999;28;20047;-73
2022/04/07 14:16:31;;;;;;;2.78;0.80;;;;;;;11.61;93.43;97829.47;5072646;28;20481;-74
2022/04/07 14:18:57;;;;;;;2.65;0.70;;;;;;;11.54;95.22;97839.47;5089367;28;20028;-71
2022/04/07 14:21:23;;;;;;;3.38;1.02;;;;;;;11.47;96.63;97825.44;5072315;28;20040;-72
2022/04/07 14:23:48;;;;;;;2.17;0.57;;;;;;;11.53;93.78;97821.03;5073954;28;20103;-72
2022/04/07 14:26:15;;;;;;;2.20;0.73;;;;;;;11.65;92.48;97824.44;5073301;28;20041;-71
2022/04/07 14:28:41;;;;;;;2.65;0.90;;;;;;;11.56;95.09;97816.03;5073466;28;20032;-73
2022/04/07 14:31:06;;;;;;;2.83;0.70;;;;;;;11.55;93.00;97843.75;5073237;28;20055;-72
2022/04/07 14:33:32;;;;;;;1.27;0.60;;;;;;;11.54;93.82;97834.13;5055138;28;20037;-72
2022/04/07 14:35:58;;;;;;;0.95;0.50;;;;;;;11.62;92.58;97824.94;5073183;28;20041;-71
2022/04/07 14:38:23;;;;;;;1.85;0.75;;;;;;;11.72;90.64;97832.31;5073031;28;20082;-72
2022/04/07 14:40:49;;;;;;;3.28;1.02;;;;;;;11.79;90.96;97815.09;5071679;28;20037;-72
2022/04/07 14:43:15;;;;;;;1.95;0.77;;;;;;;11.84;89.41;97828.56;5054710;28;20405;-72
2022/04/07 14:45:42;;;;;;;1.25;0.70;;;;;;;11.72;92.26;97827.78;5072826;28;20048;-74
2022/04/07 14:48:08;;;;;;;1.47;0.70;;;;;;;11.73;91.98;97836.59;5072978;28;20497;-72
2022/04/07 14:50:35;;;;;;;0.70;0.60;;;;;;;11.72;92.29;97846.44;5071744;28;20132;-71
2022/04/07 14:53:00;;;;;;;0.80;0.70;;;;;;;11.84;89.18;97841.91;5072567;28;20040;-72
2022/04/07 14:55:26;;;;;;;1.30;0.75;;;;;;;11.86;89.44;97842.47;5088342;28;20036;-72
2022/04/07 14:57:52;;;;;;;1.67;0.70;;;;;;;11.85;90.33;97848.84;5072789;28;20036;-71
2022/04/07 15:00:18;;;;;;;3.95;0.80;;;;;;;11.92;91.50;97846.84;5088338;28;20068;-72
2022/04/07 15:02:44;;;;;;;1.38;0.63;;;;;;;11.91;92.85;97860.44;5071160;28;20374;-73
2022/04/07 15:05:10;;;;;;;2.00;0.50;;;;;;;12.07;89.58;97858.88;5071886;28;20032;-72
2022/04/07 15:07:36;;;;;;;3.30;0.70;;;;;;;12.10;89.24;97869.03;5071257;28;20039;-72
2022/04/07 15:10:04;;;;;;;4.05;0.98;;;;;;;11.95;92.50;97870.41;5072519;28;20122;-72
2022/04/07 15:12:30;;;;;;;3.53;1.35;;;;;;;11.78;96.76;97887.38;5072201;28;20498;-73
2022/04/07 15:14:55;;;;;;;3.17;1.05;;;;;;;11.71;95.94;97876.03;5072387;28;20064;-72
2022/04/07 15:17:21;;;;;;;10.82;3.75;;;;;;;11.69;97.39;97906.41;5072300;28;20040;-72
2022/04/07 15:19:46;;;;;;;2.70;1.00;;;;;;;11.63;100.00;97912.69;5072334;28;20067;-72
2022/04/07 15:22:12;;;;;;;1.75;0.88;;;;;;;11.61;99.12;97908.66;5071769;28;20379;-73
2022/04/07 15:24:38;;;;;;;2.15;1.13;;;;;;;11.63;100.00;97899.38;5071041;28;20041;-72
2022/04/07 15:27:05;;;;;;;1.33;0.70;;;;;;;11.53;100.00;97965.00;5072153;28;20033;-72
2022/04/07 15:29:32;;;;;;;3.40;0.90;;;;;;;11.44;100.00;98009.06;5072302;28;20081;-71
2022/04/07 15:31:58;;;;;;;4.43;1.50;;;;;;;11.20;100.00;98016.22;5070931;28;20028;-73
2022/04/07 15:34:23;;;;;;;1.30;0.68;;;;;;;10.86;100.00;97998.13;5087693;28;20059;-74
2022/04/07 15:36:49;;;;;;;1.42;0.80;;;;;;;10.65;100.00;97996.00;5071828;28;20131;-72
2022/04/07 15:39:15;;;;;;;2.88;1.10;;;;;;;10.39;100.00;98005.19;5072134;28;20028;-72
2022/04/07 15:41:53;;;;;;;2.60;1.42;;;;;;;10.23;100.00;97993.31;5053981;28;20040;-73
2022/04/07 15:44:19;;;;;;;3.10;1.23;;;;;;;10.11;100.00;97991.63;5071048;28;20105;-73
2022/04/07 15:46:44;;;;;;;2.70;1.27;;;;;;;10.12;100.00;97994.06;5071803;28;20477;-74
2022/04/07 15:49:10;;;;;;;2.60;1.02;;;;;;;10.02;100.00;98005.22;5087538;28;20062;-74
2022/04/07 15:51:36;;;;;;;7.68;1.27;;;;;;;10.00;100.00;98009.16;5087126;28;20041;-73
2022/04/07 15:54:03;;;;;;;3.03;1.38;;;;;;;9.98;100.00;98001.41;5087464;28;20097;-72
2022/04/07 15:56:30;;;;;;;2.42;1.00;;;;;;;10.00;100.00;97994.00;5087555;28;20124;-73
2022/04/07 15:58:56;;;;;;;2.90;0.60;;;;;;;9.98;100.00;98006.72;5087433;28;20098;-71
2022/04/07 16:01:22;;;;;;;3.08;1.20;;;;;;;10.04;100.00;98015.63;5071519;28;20040;-73